Woodbury, Indiana
Current Conditions -  °F | °C
As of 7:35 PM on Monday 24 Nov 2014 (Local Time) from KMQJ Reporting Station
Overcast Overcast  
Wind Chill: 29°   Ceiling: 3100
Heat Index: 37°   Visibility: 10mi
Dew Point: 25°   Wind: 14mph
Humidity: 60%   Direction: 240°WSW
Pressure: 29.82"   Gusts: NA
Location:  39.9249°N, 85.9217°W
Report Text: KMQJ 250035Z AUTO 24012KT 10SM BKN031 OVC042 03/M04 A2982 RMK AO1
Loading
Personal Weather Stations






























Interactive Weather Map New forecast layout! Learn more

10-Day Weather Forecast

Advertisements
Track Severe Weather on mobile